This is the latest recevied weather packets stored in our database for station/object PY2RMF-10. If no packets are shown the sender has not sent any weather packets the latest 10 day(s).
| Time | Temp. | Humidity | Pressure | Rain* | Wind** | Luminosity | Snow |
|---|---|---|---|---|---|---|---|
| 1777738711 | 32.78° C | 38% | 1005 hPa | - | - | - | - |
| 1777736911 | 28.33° C | 47% | 1005 hPa | - | - | - | - |
| 1777735111 | 28.89° C | 44% | 1006 hPa | - | - | - | - |
| 1777733311 | 29.44° C | 43% | 1006 hPa | - | - | - | - |
| 1777731511 | 28.89° C | 45% | 1006 hPa | - | - | - | - |
| 1777729711 | 31.11° C | 40% | 1006 hPa | - | - | - | - |
| 1777727911 | 32.78° C | 37% | 1007 hPa | - | - | - | - |
| 1777726111 | 26.67° C | 70% | 1007 hPa | - | - | - | - |
| 1777724312 | 23.33° C | 99% | 1008 hPa | - | - | - | - |
| 1777722511 | 22.78° C | 100% | 1007 hPa | - | - | - | - |
| 1777720712 | 22.22° C | 100% | 1007 hPa | - | - | - | - |
| 1777718911 | 21.67° C | 100% | 1006 hPa | - | - | - | - |
| 1777717111 | 20.56° C | 100% | 1006 hPa | - | - | - | - |
| 1777715311 | 20.56° C | 100% | 1006 hPa | - | - | - | - |
| 1777713511 | 20° C | 100% | 1005 hPa | - | - | - | - |
| 1777711711 | 20.56° C | 100% | 1005 hPa | - | - | - | - |
| 1777709912 | 21.11° C | 100% | 1004 hPa | - | - | - | - |
| 1777708111 | 21.11° C | 100% | 1004 hPa | - | - | - | - |
| 1777706311 | 21.11° C | 100% | 1004 hPa | - | - | - | - |
| 1777704511 | 21.67° C | 100% | 1004 hPa | - | - | - | - |
| 1777702711 | 21.67° C | 100% | 1004 hPa | - | - | - | - |
| 1777700911 | 21.67° C | 100% | 1004 hPa | - | - | - | - |
| 1777699112 | 21.67° C | 100% | 1004 hPa | - | - | - | - |
| 1777697311 | 22.22° C | 100% | 1004 hPa | - | - | - | - |
| 1777695511 | 22.22° C | 100% | 1005 hPa | - | - | - | - |
* Rain since midnight (hover to see other rain measurements)
** Current wind speed in m/s (hover to see current wind gust speed)